Time;durP1;ratioP1;P1;durP2;ratioP2;P2;SDS_P1;SDS_P2;PMS_P1;PMS_P2;Temp;Humidity;BMP_temperature;BMP_pressure;BME280_temperature;BME280_humidity;BME280_pressure;Samples;Min_cycle;Max_cycle;Signal;HPM_P1;HPM_P2
2024/03/29 00:01:47;;;;;;;10.02;1.17;;;;;;;11.27;100.00;99044.50;5271175;28;20114;-73
2024/03/29 00:04:17;;;;;;;7.90;0.90;;;;;;;11.25;100.00;99046.59;5272659;28;20023;-73
2024/03/29 00:06:47;;;;;;;3.83;0.52;;;;;;;11.16;100.00;99048.69;5269901;28;20032;-73
2024/03/29 00:09:18;;;;;;;7.90;1.10;;;;;;;11.21;100.00;99053.41;5275740;28;20012;-73
2024/03/29 00:11:49;;;;;;;6.65;1.17;;;;;;;11.10;100.00;99058.41;5268076;28;20028;-73
2024/03/29 00:14:19;;;;;;;5.88;1.05;;;;;;;11.11;100.00;99049.31;5272428;28;20469;-73
2024/03/29 00:16:50;;;;;;;7.38;1.95;;;;;;;11.04;100.00;99069.97;5270263;28;20028;-73
2024/03/29 00:19:20;;;;;;;7.82;1.83;;;;;;;11.13;100.00;99063.34;5273620;28;20480;-73
2024/03/29 00:21:51;;;;;;;2.90;0.80;;;;;;;11.07;100.00;99076.78;5275432;28;20023;-73
2024/03/29 00:24:21;;;;;;;5.53;0.90;;;;;;;11.05;100.00;99071.66;5273276;28;20023;-73
2024/03/29 00:26:52;;;;;;;3.78;0.77;;;;;;;10.91;100.00;99064.69;5275012;28;20020;-73
2024/03/29 00:29:22;;;;;;;6.57;0.93;;;;;;;11.04;100.00;99064.59;5277730;28;20019;-73
2024/03/29 00:31:53;;;;;;;2.80;0.90;;;;;;;11.09;100.00;99072.03;5274954;28;20366;-73
2024/03/29 00:34:23;;;;;;;9.15;1.17;;;;;;;11.12;100.00;99059.00;5276237;28;20520;-73
2024/03/29 00:36:54;;;;;;;6.10;0.90;;;;;;;11.15;100.00;99055.09;5275080;28;20055;-73
2024/03/29 00:39:24;;;;;;;7.53;0.77;;;;;;;11.13;100.00;99068.72;5274682;28;20024;-73
2024/03/29 00:41:54;;;;;;;2.45;1.00;;;;;;;11.20;100.00;99063.31;5273291;28;20469;-73
2024/03/29 00:44:25;;;;;;;6.57;1.83;;;;;;;11.30;100.00;99062.88;5275839;28;20188;-73
2024/03/29 00:46:55;;;;;;;4.70;0.80;;;;;;;11.31;100.00;99069.88;5272773;28;20358;-73
2024/03/29 00:49:26;;;;;;;5.00;1.35;;;;;;;11.28;100.00;99063.06;5270947;28;20023;-73
2024/03/29 00:51:56;;;;;;;9.60;0.82;;;;;;;11.38;100.00;99060.75;5271334;28;20046;-73
2024/03/29 00:54:27;;;;;;;10.68;1.33;;;;;;;11.29;100.00;99055.84;5275923;28;20069;-73
2024/03/29 00:56:58;;;;;;;6.40;1.25;;;;;;;11.31;100.00;99064.50;5276291;28;20528;-73
2024/03/29 00:59:29;;;;;;;6.35;1.38;;;;;;;11.30;100.00;99062.88;5275253;28;20024;-73
2024/03/29 01:02:00;;;;;;;7.57;1.15;;;;;;;11.27;100.00;99053.38;5275999;28;20019;-73
2024/03/29 01:04:30;;;;;;;10.10;1.52;;;;;;;11.35;100.00;99041.56;5272165;28;20031;-73
2024/03/29 01:07:01;;;;;;;3.28;0.80;;;;;;;11.24;100.00;99058.34;5273031;28;20470;-73
2024/03/29 01:09:31;;;;;;;4.75;0.90;;;;;;;11.30;100.00;99047.59;5276662;27;20023;-73
2024/03/29 01:12:02;;;;;;;7.25;1.00;;;;;;;11.27;100.00;99052.56;5272862;28;20367;-73
2024/03/29 01:14:32;;;;;;;6.05;1.00;;;;;;;11.36;100.00;99048.59;5275502;28;20023;-73
2024/03/29 01:17:03;;;;;;;5.20;1.00;;;;;;;11.33;100.00;99038.25;5271564;28;20077;-73
2024/03/29 01:19:33;;;;;;;5.53;0.98;;;;;;;11.28;100.00;99054.19;5274268;28;20129;-73
2024/03/29 01:22:04;;;;;;;8.63;0.70;;;;;;;11.27;100.00;99045.31;5273359;28;20013;-73
2024/03/29 01:24:35;;;;;;;5.72;1.17;;;;;;;11.47;100.00;99044.38;5272811;28;20788;-73
2024/03/29 01:27:06;;;;;;;23.35;1.48;;;;;;;11.58;100.00;99033.78;5274924;28;20077;-73
2024/03/29 01:29:37;;;;;;;3.08;0.75;;;;;;;11.51;100.00;99029.50;5273367;28;20012;-73
2024/03/29 01:32:08;;;;;;;3.08;1.10;;;;;;;11.52;100.00;99034.63;5274490;28;20039;-73
2024/03/29 01:34:38;;;;;;;6.82;0.90;;;;;;;11.52;100.00;99021.22;5271387;28;20374;-73
2024/03/29 01:37:09;;;;;;;4.78;1.10;;;;;;;11.44;100.00;99013.41;5273049;28;20024;-73
2024/03/29 01:39:39;;;;;;;1.85;0.70;;;;;;;11.57;100.00;99020.56;5272733;28;20110;-73
2024/03/29 01:42:09;;;;;;;2.30;0.60;;;;;;;11.59;100.00;99021.16;5273113;28;20093;-73
2024/03/29 01:44:40;;;;;;;7.13;0.98;;;;;;;11.61;100.00;99027.16;5273366;28;20023;-73
2024/03/29 01:47:10;;;;;;;6.05;1.05;;;;;;;11.61;100.00;99019.91;5272320;28;20032;-74
2024/03/29 01:49:41;;;;;;;3.45;0.70;;;;;;;11.64;100.00;99030.22;5273562;28;20054;-73
2024/03/29 01:52:15;;;;;;;7.18;0.60;;;;;;;11.73;100.00;99011.16;5271945;28;20388;-73
2024/03/29 01:54:46;;;;;;;3.78;0.80;;;;;;;11.69;100.00;99034.94;5270664;28;20047;-73
2024/03/29 01:57:17;;;;;;;7.60;0.90;;;;;;;11.62;100.00;99021.56;5278924;28;20456;-73
2024/03/29 01:59:48;;;;;;;4.97;0.90;;;;;;;11.59;100.00;99024.66;5269959;28;20028;-73
2024/03/29 02:02:19;;;;;;;7.40;1.23;;;;;;;11.73;100.00;99036.16;5275718;28;20024;-73
2024/03/29 02:04:50;;;;;;;0.98;0.40;;;;;;;11.71;100.00;99029.38;5268733;28;20038;-73
2024/03/29 02:07:20;;;;;;;3.97;0.60;;;;;;;11.64;100.00;99038.25;5275540;28;20132;-73
2024/03/29 02:09:51;;;;;;;3.75;0.65;;;;;;;11.64;100.00;99032.91;5272094;28;20077;-73
2024/03/29 02:12:22;;;;;;;5.43;1.13;;;;;;;11.59;100.00;99043.47;5273222;28;20054;-73
2024/03/29 02:14:52;;;;;;;3.03;0.70;;;;;;;11.43;100.00;99054.72;5270539;28;20043;-74
2024/03/29 02:17:23;;;;;;;1.65;0.50;;;;;;;11.46;100.00;99043.56;5272430;28;20015;-73
2024/03/29 02:19:53;;;;;;;4.47;0.75;;;;;;;11.30;100.00;99038.72;5270009;28;20099;-73
2024/03/29 02:22:25;;;;;;;1.42;0.68;;;;;;;11.34;100.00;99045.28;5275108;28;20045;-74
2024/03/29 02:24:55;;;;;;;6.82;0.45;;;;;;;11.41;100.00;99040.72;5266377;28;20012;-73
2024/03/29 02:27:35;;;;;;;2.08;0.50;;;;;;;11.45;100.00;99052.66;5268401;28;20039;-73
2024/03/29 02:30:06;;;;;;;2.15;0.60;;;;;;;11.25;100.00;99027.78;5272207;28;20023;-73
2024/03/29 02:32:36;;;;;;;3.35;0.55;;;;;;;11.36;100.00;99035.16;5271267;28;20044;-73
2024/03/29 02:35:07;;;;;;;3.08;0.80;;;;;;;11.22;100.00;99049.69;5271737;28;20104;-73
2024/03/29 02:37:38;;;;;;;4.45;0.55;;;;;;;11.29;100.00;99053.97;5270505;28;20024;-73
2024/03/29 02:40:09;;;;;;;2.63;0.30;;;;;;;11.10;100.00;99038.81;5272207;28;20035;-73
2024/03/29 02:42:39;;;;;;;3.38;1.48;;;;;;;11.25;100.00;99046.59;5271472;28;20031;-73
2024/03/29 02:45:10;;;;;;;2.35;0.30;;;;;;;11.10;100.00;99060.28;5270041;28;20031;-73
2024/03/29 02:47:40;;;;;;;3.03;0.38;;;;;;;11.06;100.00;99059.88;5271577;28;20030;-73
2024/03/29 02:50:14;;;;;;;1.90;0.32;;;;;;;11.03;100.00;99065.66;5271071;28;20031;-73
2024/03/29 02:52:45;;;;;;;1.88;0.45;;;;;;;11.12;100.00;99052.81;5270976;28;20462;-73
2024/03/29 02:55:16;;;;;;;2.13;0.60;;;;;;;10.90;100.00;99065.72;5272660;28;20012;-73
2024/03/29 02:57:46;;;;;;;5.10;0.80;;;;;;;11.05;100.00;99074.34;5276586;28;20443;-76
2024/03/29 03:00:17;;;;;;;3.80;0.50;;;;;;;11.00;100.00;99074.16;5271980;28;20016;-74
2024/03/29 03:02:47;;;;;;;0.95;0.40;;;;;;;10.79;100.00;99063.66;5271126;28;20024;-74
2024/03/29 03:05:18;;;;;;;4.10;0.70;;;;;;;10.73;100.00;99067.19;5269152;28;20132;-75
2024/03/29 03:10:59;;;;;;;2.00;0.50;;;;;;;10.48;100.00;99069.72;5268731;28;20090;-74
2024/03/29 03:13:30;;;;;;;3.58;0.43;;;;;;;10.36;100.00;99085.63;5266758;28;20055;-74
2024/03/29 03:16:01;;;;;;;1.70;0.65;;;;;;;10.20;100.00;99078.81;5269169;28;20024;-74
2024/03/29 03:18:32;;;;;;;2.72;0.68;;;;;;;10.15;100.00;99085.81;5267747;28;20028;-74
2024/03/29 03:21:02;;;;;;;2.13;0.60;;;;;;;10.17;100.00;99083.75;5266471;28;20469;-74
2024/03/29 03:23:33;;;;;;;2.55;0.55;;;;;;;10.00;100.00;99078.81;5269353;28;20450;-74
2024/03/29 03:26:04;;;;;;;8.15;1.58;;;;;;;9.89;100.00;99094.63;5268118;28;20038;-74
2024/03/29 03:28:35;;;;;;;2.65;0.73;;;;;;;9.80;100.00;99099.38;5269121;28;20069;-74
2024/03/29 03:31:07;;;;;;;6.25;0.90;;;;;;;9.63;100.00;99100.78;5266278;28;20016;-74
2024/03/29 03:33:37;;;;;;;6.35;0.68;;;;;;;9.70;100.00;99105.13;5263870;28;20032;-74
2024/03/29 03:36:08;;;;;;;6.35;0.60;;;;;;;9.68;100.00;99093.78;5267528;28;20016;-74
2024/03/29 03:38:39;;;;;;;2.58;0.60;;;;;;;9.54;100.00;99092.13;5262172;28;20016;-75
2024/03/29 03:41:10;;;;;;;2.55;0.80;;;;;;;9.39;100.00;99094.13;5271819;28;20034;-75
2024/03/29 03:43:40;;;;;;;7.30;0.60;;;;;;;9.35;100.00;99109.78;5271746;28;20024;-75
2024/03/29 03:46:11;;;;;;;2.72;0.68;;;;;;;9.24;100.00;99110.34;5267861;28;20030;-75
2024/03/29 03:48:41;;;;;;;4.70;0.50;;;;;;;9.20;100.00;99101.06;5267994;28;20038;-75
2024/03/29 03:51:12;;;;;;;5.63;0.70;;;;;;;9.17;100.00;99125.53;5268743;28;20024;-75
2024/03/29 03:53:42;;;;;;;2.90;0.70;;;;;;;9.10;100.00;99146.09;5267742;28;20129;-75
2024/03/29 03:56:13;;;;;;;7.70;0.95;;;;;;;9.18;100.00;99130.69;5277633;28;20106;-75
2024/03/29 03:58:44;;;;;;;1.95;0.50;;;;;;;9.15;100.00;99120.41;5270936;28;20016;-74
2024/03/29 04:01:15;;;;;;;4.95;0.75;;;;;;;9.10;100.00;99097.94;5271305;28;20031;-75
2024/03/29 04:03:45;;;;;;;3.63;0.70;;;;;;;9.22;100.00;99107.03;5271409;28;20093;-75
2024/03/29 04:06:16;;;;;;;5.35;1.02;;;;;;;9.17;100.00;99096.94;5270583;28;20092;-75
2024/03/29 04:08:47;;;;;;;10.43;1.08;;;;;;;9.10;100.00;99103.28;5272899;28;20038;-75
2024/03/29 04:11:17;;;;;;;7.95;1.42;;;;;;;9.11;100.00;99100.41;5273643;28;20016;-75
2024/03/29 04:13:48;;;;;;;5.65;0.80;;;;;;;9.12;100.00;99093.22;5273241;28;20016;-75
2024/03/29 04:16:18;;;;;;;2.70;0.90;;;;;;;9.22;100.00;99096.34;5273327;28;20465;-75
2024/03/29 04:18:49;;;;;;;5.10;1.17;;;;;;;9.14;100.00;99099.19;5274205;28;20016;-75
2024/03/29 04:21:19;;;;;;;2.92;1.00;;;;;;;9.15;100.00;99092.81;5273837;28;20084;-75
2024/03/29 04:23:50;;;;;;;10.63;1.10;;;;;;;9.13;100.00;99084.16;5270700;28;20038;-75
2024/03/29 04:26:21;;;;;;;6.82;1.40;;;;;;;9.27;100.00;99086.69;5274214;28;20015;-75
2024/03/29 04:28:51;;;;;;;5.45;1.08;;;;;;;9.18;100.00;99087.88;5269740;28;20020;-75
2024/03/29 04:31:22;;;;;;;4.47;1.27;;;;;;;9.16;100.00;99097.13;5273865;28;20132;-75
2024/03/29 04:33:52;;;;;;;3.45;0.85;;;;;;;9.03;100.00;99077.31;5268118;28;20375;-75
2024/03/29 04:36:22;;;;;;;7.03;0.80;;;;;;;8.97;100.00;99093.34;5270971;28;20095;-75
2024/03/29 04:38:55;;;;;;;4.43;0.95;;;;;;;9.05;100.00;99095.88;5267525;28;20031;-75
2024/03/29 04:41:25;;;;;;;2.72;1.00;;;;;;;9.07;100.00;99094.63;5274481;28;20732;-75
2024/03/29 04:43:56;;;;;;;7.18;1.20;;;;;;;9.14;100.00;99093.84;5269673;28;20027;-75
2024/03/29 04:46:29;;;;;;;4.03;1.05;;;;;;;9.13;100.00;99078.78;5269632;28;20023;-75
2024/03/29 04:48:59;;;;;;;3.70;0.90;;;;;;;9.09;100.00;99081.06;5269499;28;20492;-75
2024/03/29 04:51:30;;;;;;;3.00;0.73;;;;;;;9.07;100.00;99075.91;5268711;28;20024;-75
2024/03/29 04:54:00;;;;;;;2.10;0.90;;;;;;;9.06;100.00;99076.94;5267599;28;20016;-75
2024/03/29 04:56:32;;;;;;;2.63;0.77;;;;;;;9.07;100.00;99078.56;5273031;28;20024;-75
2024/03/29 04:59:02;;;;;;;3.15;0.90;;;;;;;9.03;100.00;99074.63;5265825;28;20730;-75
2024/03/29 05:01:35;;;;;;;4.05;0.65;;;;;;;9.00;100.00;99076.91;5269734;28;20107;-75
2024/03/29 05:04:06;;;;;;;5.90;0.82;;;;;;;9.03;100.00;99080.00;5267375;28;20060;-75
2024/03/29 05:06:36;;;;;;;4.13;0.43;;;;;;;9.03;100.00;99077.31;5269270;28;20462;-75
2024/03/29 05:09:07;;;;;;;6.90;0.70;;;;;;;9.08;100.00;99082.91;5266770;28;20054;-75
2024/03/29 05:11:37;;;;;;;4.22;0.60;;;;;;;9.07;100.00;99089.28;5269320;28;20027;-75
2024/03/29 05:14:10;;;;;;;5.18;0.73;;;;;;;9.01;100.00;99082.06;5268759;28;20474;-75
2024/03/29 05:16:41;;;;;;;2.40;0.80;;;;;;;9.06;100.00;99079.59;5269252;28;20034;-75
2024/03/29 05:19:12;;;;;;;3.35;1.05;;;;;;;9.09;100.00;99078.41;5269290;28;20115;-75
2024/03/29 05:21:43;;;;;;;5.32;0.80;;;;;;;9.10;100.00;99079.22;5266733;28;20020;-75
2024/03/29 05:24:13;;;;;;;7.68;1.02;;;;;;;9.09;100.00;99081.06;5269713;28;20160;-75
2024/03/29 05:26:44;;;;;;;4.22;1.25;;;;;;;9.09;100.00;99073.03;5268529;28;20024;-75
2024/03/29 05:29:15;;;;;;;3.60;0.90;;;;;;;9.05;100.00;99086.00;5269889;28;20024;-75
2024/03/29 05:31:45;;;;;;;2.10;0.65;;;;;;;9.08;100.00;99103.47;5267623;28;20397;-75
2024/03/29 05:34:16;;;;;;;2.65;0.80;;;;;;;9.00;100.00;99101.81;5267527;28;20039;-75
2024/03/29 05:36:46;;;;;;;2.38;0.65;;;;;;;8.99;100.00;99116.22;5270090;28;20028;-75
2024/03/29 05:39:18;;;;;;;1.83;0.47;;;;;;;8.98;100.00;99117.22;5266208;28;20054;-75
2024/03/29 05:41:49;;;;;;;1.42;0.60;;;;;;;8.99;100.00;99124.22;5266980;28;20043;-75
2024/03/29 05:44:19;;;;;;;3.97;0.50;;;;;;;8.88;100.00;99127.44;5266343;28;20464;-75
2024/03/29 05:46:50;;;;;;;0.93;0.20;;;;;;;8.93;100.00;99140.22;5266840;28;20016;-75
2024/03/29 05:49:20;;;;;;;1.40;0.55;;;;;;;8.98;100.00;99146.63;5231425;28;1099629;-75
2024/03/29 05:51:51;;;;;;;2.58;0.50;;;;;;;8.95;100.00;99148.91;5265693;28;20020;-75
2024/03/29 05:54:22;;;;;;;1.13;0.55;;;;;;;8.90;100.00;99144.13;5268316;28;20506;-75
2024/03/29 05:56:54;;;;;;;3.00;0.65;;;;;;;8.82;100.00;99139.75;5268947;28;20016;-75
2024/03/29 05:59:24;;;;;;;1.95;0.52;;;;;;;8.88;100.00;99148.00;5280406;28;20119;-75
2024/03/29 06:01:55;;;;;;;2.30;0.73;;;;;;;8.92;100.00;99138.56;5267957;28;20039;-75
2024/03/29 06:04:32;;;;;;;2.58;0.73;;;;;;;8.98;100.00;99130.56;5265990;28;20016;-75
2024/03/29 06:07:04;;;;;;;2.53;0.57;;;;;;;9.00;100.00;99133.91;5268740;28;20103;-74
2024/03/29 06:09:35;;;;;;;3.22;0.63;;;;;;;9.04;100.00;99137.84;5269122;27;20008;-75
2024/03/29 06:12:07;;;;;;;0.95;0.55;;;;;;;9.03;100.00;99143.38;5269026;28;20020;-75
2024/03/29 06:17:27;;;;;;;1.92;0.68;;;;;;;9.13;100.00;99130.44;5268171;28;20047;-75
2024/03/29 06:20:00;;;;;;;1.80;0.60;;;;;;;9.16;100.00;99130.06;5266565;28;20069;-75
2024/03/29 06:22:30;;;;;;;4.65;1.02;;;;;;;9.24;100.00;99129.91;5268096;28;20020;-74
2024/03/29 06:25:04;;;;;;;2.53;0.90;;;;;;;9.21;100.00;99124.94;5265507;28;20016;-75
2024/03/29 06:27:37;;;;;;;2.15;0.85;;;;;;;9.31;100.00;99113.88;5269273;28;20389;-74
2024/03/29 06:30:08;;;;;;;4.13;0.90;;;;;;;9.39;100.00;99110.19;5268458;28;20028;-74
2024/03/29 06:32:38;;;;;;;3.65;1.20;;;;;;;9.50;100.00;99113.13;5266908;28;20024;-74
2024/03/29 06:35:09;;;;;;;4.63;1.58;;;;;;;9.53;100.00;99117.22;5267634;28;20042;-74
2024/03/29 06:37:40;;;;;;;3.10;1.33;;;;;;;9.58;100.00;99120.13;5264708;28;20055;-74
2024/03/29 06:40:10;;;;;;;5.20;1.30;;;;;;;9.48;100.00;99122.34;5268304;28;20036;-74
2024/03/29 06:42:41;;;;;;;2.78;1.25;;;;;;;9.51;100.00;99122.78;5267122;28;20576;-74
2024/03/29 06:45:11;;;;;;;4.30;1.25;;;;;;;9.64;100.00;99113.13;5267329;28;20058;-74
2024/03/29 06:47:42;;;;;;;5.15;1.50;;;;;;;9.70;100.00;99118.53;5256128;28;20537;-74
2024/03/29 06:50:13;;;;;;;4.75;1.45;;;;;;;9.71;100.00;99112.13;5261325;28;20028;-74
2024/03/29 06:52:45;;;;;;;6.85;1.50;;;;;;;9.79;100.00;99113.81;5264117;28;20219;-74
2024/03/29 06:55:17;;;;;;;4.18;1.20;;;;;;;9.86;100.00;99114.63;5266604;28;20024;-75
2024/03/29 06:57:48;;;;;;;3.78;1.40;;;;;;;10.06;100.00;99117.34;5267595;28;20027;-74
2024/03/29 07:00:19;;;;;;;6.63;1.60;;;;;;;10.21;100.00;99128.69;5266991;28;20019;-75
2024/03/29 07:02:50;;;;;;;6.90;1.63;;;;;;;10.21;100.00;99134.03;5267188;28;20028;-74
2024/03/29 07:05:21;;;;;;;3.40;1.38;;;;;;;10.34;100.00;99136.78;5271139;28;20019;-74
2024/03/29 07:07:53;;;;;;;4.93;1.33;;;;;;;10.36;100.00;99144.59;5262798;28;20436;-74
2024/03/29 07:10:23;;;;;;;5.63;1.17;;;;;;;10.27;100.00;99148.50;5269825;28;20140;-75
2024/03/29 07:12:53;;;;;;;2.80;0.98;;;;;;;10.31;100.00;99158.63;5267093;28;20032;-74
2024/03/29 07:15:24;;;;;;;4.80;1.40;;;;;;;10.34;100.00;99146.63;5266764;28;20030;-74
2024/03/29 07:17:56;;;;;;;3.00;1.00;;;;;;;10.38;100.00;99137.97;5265561;28;20016;-74
2024/03/29 07:20:27;;;;;;;4.03;1.17;;;;;;;10.34;100.00;99144.81;5262988;28;20035;-74
2024/03/29 07:22:57;;;;;;;3.35;1.25;;;;;;;10.29;100.00;99154.47;5265728;28;20591;-74
2024/03/29 07:25:28;;;;;;;4.68;1.10;;;;;;;10.32;100.00;99168.31;5266490;28;20027;-75
2024/03/29 07:27:58;;;;;;;3.35;1.10;;;;;;;10.36;100.00;99166.03;5266795;28;20026;-75
2024/03/29 07:30:29;;;;;;;12.75;1.50;;;;;;;10.22;100.00;99150.94;5269409;27;20442;-74
2024/03/29 07:32:59;;;;;;;5.28;1.63;;;;;;;10.27;100.00;99148.50;5265822;28;20016;-74
2024/03/29 07:35:30;;;;;;;4.93;1.23;;;;;;;10.26;100.00;99149.53;5267974;28;20110;-74
2024/03/29 07:38:00;;;;;;;5.82;1.40;;;;;;;10.20;100.00;99151.16;5267671;28;20024;-75
2024/03/29 07:40:31;;;;;;;3.20;1.05;;;;;;;10.23;100.00;99142.69;5267569;28;20023;-74
2024/03/29 07:43:03;;;;;;;4.03;0.82;;;;;;;10.24;100.00;99139.03;5268108;28;20009;-75
2024/03/29 07:45:33;;;;;;;2.97;1.00;;;;;;;10.21;100.00;99123.31;5269046;28;20076;-75
2024/03/29 07:48:04;;;;;;;5.00;1.35;;;;;;;10.30;100.00;99121.31;5268073;28;20024;-74
2024/03/29 07:50:36;;;;;;;5.18;1.13;;;;;;;10.32;100.00;99132.63;5263263;28;20504;-74
2024/03/29 07:53:07;;;;;;;4.85;1.15;;;;;;;10.28;100.00;99129.53;5265816;28;20020;-74
2024/03/29 07:55:39;;;;;;;5.35;1.73;;;;;;;10.41;100.00;99133.25;5267784;28;20108;-75
2024/03/29 07:58:10;;;;;;;3.47;1.15;;;;;;;10.39;100.00;99136.13;5270090;28;20024;-75
2024/03/29 08:00:41;;;;;;;5.53;2.13;;;;;;;10.49;100.00;99133.88;5263105;28;20023;-75
2024/03/29 08:03:12;;;;;;;6.03;2.20;;;;;;;10.61;100.00;99136.75;5267359;28;20398;-74
2024/03/29 08:05:42;;;;;;;6.38;2.17;;;;;;;10.77;100.00;99151.59;5265723;28;20028;-74
2024/03/29 08:08:13;;;;;;;9.75;2.10;;;;;;;10.97;100.00;99159.59;5270667;28;20663;-75
2024/03/29 08:10:43;;;;;;;5.20;1.55;;;;;;;11.08;100.00;99170.50;5268928;28;20024;-74
2024/03/29 08:13:15;;;;;;;5.63;1.60;;;;;;;11.10;100.00;99165.75;5266870;28;20024;-75
2024/03/29 08:15:47;;;;;;;5.95;1.70;;;;;;;11.28;100.00;99151.66;5265269;28;20024;-74
2024/03/29 08:18:17;;;;;;;3.45;1.75;;;;;;;11.21;100.00;99160.78;5268577;28;20151;-74
2024/03/29 08:20:48;;;;;;;4.35;1.70;;;;;;;11.19;100.00;99174.38;5266033;28;20049;-74
2024/03/29 08:23:18;;;;;;;5.18;1.60;;;;;;;11.23;100.00;99172.94;5269067;28;20024;-74
2024/03/29 08:25:49;;;;;;;4.53;1.80;;;;;;;11.18;100.00;99171.94;5263137;28;20020;-74
2024/03/29 08:28:19;;;;;;;4.75;1.95;;;;;;;11.21;100.00;99187.63;5267978;28;20047;-74
2024/03/29 08:30:58;;;;;;;3.90;1.85;;;;;;;11.34;100.00;99188.38;5267230;28;20430;-74
2024/03/29 08:33:30;;;;;;;5.40;1.80;;;;;;;11.39;100.00;99188.56;5265007;28;20022;-75
2024/03/29 08:36:00;;;;;;;5.15;1.92;;;;;;;11.42;100.00;99181.97;5266113;28;20059;-75
2024/03/29 08:38:31;;;;;;;6.82;2.50;;;;;;;11.52;100.00;99185.03;5266387;28;20016;-74
2024/03/29 08:41:02;;;;;;;11.93;2.10;;;;;;;11.56;100.00;99188.94;5265906;28;20024;-75
2024/03/29 08:43:32;;;;;;;5.57;2.10;;;;;;;11.81;100.00;99177.47;5272442;28;20139;-74
2024/03/29 08:46:03;;;;;;;7.57;1.88;;;;;;;12.03;100.00;99176.13;5268074;28;20016;-75
2024/03/29 08:48:34;;;;;;;3.47;1.60;;;;;;;12.29;100.00;99176.97;5254969;28;20031;-75
2024/03/29 08:51:04;;;;;;;4.72;1.70;;;;;;;12.68;100.00;99181.22;5269141;28;20043;-75
2024/03/29 08:53:35;;;;;;;4.55;1.90;;;;;;;12.72;100.00;99189.69;5269502;28;20491;-75
2024/03/29 08:56:06;;;;;;;5.10;2.25;;;;;;;12.65;100.00;99204.03;5271667;28;20032;-75
2024/03/29 08:58:36;;;;;;;6.95;3.00;;;;;;;12.52;100.00;99196.06;5271204;28;20024;-75
2024/03/29 09:01:07;;;;;;;5.28;2.45;;;;;;;12.41;100.00;99194.91;5272386;28;20016;-74
2024/03/29 09:03:37;;;;;;;7.88;2.80;;;;;;;12.27;100.00;99209.47;5271161;28;20440;-75
2024/03/29 09:06:08;;;;;;;4.78;2.20;;;;;;;12.46;100.00;99196.13;5270777;28;20035;-75
2024/03/29 09:08:38;;;;;;;3.90;2.85;;;;;;;12.50;100.00;99186.53;5267956;28;20018;-75
2024/03/29 09:11:11;;;;;;;4.95;2.45;;;;;;;12.75;100.00;99195.47;5272637;28;20024;-75
2024/03/29 09:13:41;;;;;;;6.40;2.10;;;;;;;13.19;100.00;99210.53;5270670;28;20033;-75
2024/03/29 09:16:12;;;;;;;5.03;2.20;;;;;;;13.69;100.00;99215.81;5268098;28;20028;-75
2024/03/29 09:18:42;;;;;;;3.40;1.73;;;;;;;14.24;100.00;99228.38;5268945;28;20035;-75
2024/03/29 09:21:13;;;;;;;6.72;1.55;;;;;;;14.85;100.00;99224.53;5271033;28;20590;-75
2024/03/29 09:23:46;;;;;;;9.18;1.70;;;;;;;14.81;100.00;99230.66;5270692;28;20028;-75
2024/03/29 09:26:16;;;;;;;4.38;1.85;;;;;;;14.62;100.00;99230.75;5269365;28;20378;-75
2024/03/29 09:28:47;;;;;;;4.55;1.52;;;;;;;14.82;100.00;99229.63;5270460;28;20032;-75
2024/03/29 09:31:17;;;;;;;3.78;1.30;;;;;;;15.08;100.00;99237.25;5271399;28;20096;-75
2024/03/29 09:33:52;;;;;;;5.45;1.60;;;;;;;15.12;100.00;99240.31;5267576;28;20024;-75
2024/03/29 09:36:23;;;;;;;2.22;1.38;;;;;;;15.00;100.00;99241.13;5270146;28;20030;-75
2024/03/29 09:38:53;;;;;;;3.63;1.40;;;;;;;14.70;100.00;99261.97;5267037;28;20024;-75
2024/03/29 09:41:26;;;;;;;3.35;1.20;;;;;;;14.62;100.00;99265.00;5270296;28;20034;-75
2024/03/29 09:43:59;;;;;;;4.63;1.23;;;;;;;14.43;100.00;99273.13;5267358;28;20024;-75
2024/03/29 09:46:32;;;;;;;5.10;0.80;;;;;;;14.66;100.00;99269.72;5265404;28;20019;-75
2024/03/29 09:49:05;;;;;;;1.30;0.80;;;;;;;14.58;100.00;99259.25;5268785;28;20035;-75
2024/03/29 09:51:37;;;;;;;3.20;0.98;;;;;;;14.33;100.00;99261.25;5266334;28;20078;-75
2024/03/29 09:54:12;;;;;;;1.13;0.73;;;;;;;13.81;100.00;99244.72;5264636;28;20023;-75
2024/03/29 09:56:43;;;;;;;2.78;0.88;;;;;;;13.71;100.00;99248.78;5271929;27;20043;-75
2024/03/29 09:59:14;;;;;;;3.60;0.70;;;;;;;13.97;100.00;99228.75;5269770;28;20067;-75
2024/03/29 10:01:45;;;;;;;3.13;0.88;;;;;;;14.20;100.00;99229.88;5268261;28;20545;-75
2024/03/29 10:04:17;;;;;;;2.85;0.60;;;;;;;14.51;100.00;99231.56;5267651;28;20023;-75
2024/03/29 10:06:50;;;;;;;1.58;0.57;;;;;;;14.89;100.00;99244.63;5264411;28;20024;-75
2024/03/29 10:09:22;;;;;;;1.42;0.60;;;;;;;14.82;100.00;99259.31;5270013;28;20054;-75
2024/03/29 10:11:52;;;;;;;2.00;0.52;;;;;;;15.03;100.00;99253.34;5266317;28;20024;-75
2024/03/29 10:14:23;;;;;;;1.55;0.63;;;;;;;15.35;100.00;99245.69;5269609;28;20398;-75
2024/03/29 10:16:54;;;;;;;2.33;0.80;;;;;;;15.84;100.00;99250.81;5262798;28;20043;-75
2024/03/29 10:19:24;;;;;;;3.00;1.00;;;;;;;16.19;100.00;99242.59;5266720;28;20460;-75
2024/03/29 10:22:05;;;;;;;1.23;0.60;;;;;;;16.47;100.00;99247.19;5268015;28;20020;-75
2024/03/29 10:24:37;;;;;;;2.13;0.63;;;;;;;16.05;100.00;99247.47;5265929;28;20539;-75
2024/03/29 10:27:07;;;;;;;2.13;0.63;;;;;;;15.86;100.00;99262.22;5267832;28;20432;-75
2024/03/29 10:29:40;;;;;;;1.55;0.40;;;;;;;16.11;100.00;99262.72;5266082;28;20028;-75
2024/03/29 10:32:10;;;;;;;0.65;0.50;;;;;;;16.19;100.00;99251.53;5269989;28;20020;-75
2024/03/29 10:34:41;;;;;;;1.15;0.52;;;;;;;16.51;100.00;99275.38;5265626;28;20020;-75
2024/03/29 10:37:12;;;;;;;0.75;0.60;;;;;;;16.61;100.00;99289.09;5267964;28;20047;-75
2024/03/29 10:39:43;;;;;;;1.15;0.40;;;;;;;16.33;100.00;99291.84;5267287;28;20449;-76
2024/03/29 10:42:14;;;;;;;0.88;0.55;;;;;;;16.39;100.00;99278.16;5268773;28;20026;-76
2024/03/29 10:44:45;;;;;;;0.98;0.60;;;;;;;16.05;100.00;99288.03;5267454;28;20050;-75
2024/03/29 10:47:19;;;;;;;16.73;8.48;;;;;;;15.66;100.00;99281.53;5249321;28;20024;-75
2024/03/29 10:49:51;;;;;;;5.32;3.00;;;;;;;15.48;100.00;99286.00;5267203;28;20112;-76
2024/03/29 10:52:21;;;;;;;2.35;1.60;;;;;;;15.32;100.00;99270.50;5267726;28;20106;-75
2024/03/29 10:54:54;;;;;;;2.25;0.60;;;;;;;15.24;100.00;99260.03;5266102;28;20091;-75
2024/03/29 10:57:26;;;;;;;3.58;1.10;;;;;;;15.42;100.00;99249.13;5273907;28;20030;-75
2024/03/29 11:00:14;;;;;;;9.98;5.05;;;;;;;15.47;100.00;99227.59;5261604;28;20016;-76
2024/03/29 11:02:56;;;;;;;2.92;1.15;;;;;;;15.37;100.00;99240.06;5264160;28;20043;-76
2024/03/29 11:05:29;;;;;;;3.53;1.20;;;;;;;15.38;100.00;99255.22;5266122;28;20027;-75
2024/03/29 11:08:02;;;;;;;1.23;0.82;;;;;;;15.57;100.00;99261.31;5267205;28;20103;-76
2024/03/29 11:10:39;;;;;;;1.35;0.80;;;;;;;15.47;100.00;99276.25;5269412;28;20478;-76
2024/03/29 11:13:30;;;;;;;1.55;1.08;;;;;;;15.34;100.00;99278.38;5266931;28;20430;-76
2024/03/29 11:16:01;;;;;;;2.70;0.82;;;;;;;15.05;100.00;99272.81;5262868;28;20103;-76
2024/03/29 11:18:33;;;;;;;2.90;1.08;;;;;;;15.25;100.00;99270.59;5267397;28;20114;-75
2024/03/29 11:21:08;;;;;;;2.38;1.05;;;;;;;15.47;100.00;99275.44;5265478;28;20027;-75
2024/03/29 11:23:39;;;;;;;2.70;1.00;;;;;;;15.79;100.00;99265.88;5267248;28;20027;-75
2024/03/29 11:26:09;;;;;;;4.07;1.08;;;;;;;15.92;100.00;99281.03;5265388;28;20031;-75
2024/03/29 11:28:43;;;;;;;1.60;0.95;;;;;;;16.01;100.00;99276.91;5268141;28;20024;-75
2024/03/29 11:31:15;;;;;;;2.42;0.98;;;;;;;15.88;100.00;99273.63;5269215;28;20381;-75
2024/03/29 11:33:46;;;;;;;2.83;1.23;;;;;;;16.14;100.00;99278.47;5265421;28;20024;-76
2024/03/29 11:36:18;;;;;;;1.95;1.20;;;;;;;16.21;100.00;99281.03;5267424;28;20054;-75
2024/03/29 11:38:51;;;;;;;1.60;1.15;;;;;;;16.48;100.00;99286.72;5264729;28;20019;-76
2024/03/29 11:41:23;;;;;;;2.67;0.95;;;;;;;16.55;100.00;99290.88;5269711;28;20034;-77
2024/03/29 11:43:54;;;;;;;1.83;0.90;;;;;;;16.38;100.00;99281.94;5261147;28;20538;-76
2024/03/29 11:46:25;;;;;;;1.20;1.10;;;;;;;16.33;100.00;99295.34;5254490;28;20058;-76
2024/03/29 11:48:56;;;;;;;1.65;1.20;;;;;;;16.37;100.00;99293.00;5262839;28;20708;-75
2024/03/29 11:51:26;;;;;;;1.92;1.10;;;;;;;16.59;100.00;99293.94;5266816;28;20023;-75